sensor_id;sensor_type;location;lat;lon;timestamp;pressure;altitude;pressure_sealevel;temperature;humidity
43707;BME280;61348;53.392;-6.248;2023-10-19T00:00:37;97462.03;;;12.48;100.00
43707;BME280;61348;53.392;-6.248;2023-10-19T00:03:11;97465.25;;;12.47;100.00
43707;BME280;61348;53.392;-6.248;2023-10-19T00:05:38;97463.25;;;12.47;100.00
43707;BME280;61348;53.392;-6.248;2023-10-19T00:08:06;97466.03;;;12.47;100.00
43707;BME280;61348;53.392;-6.248;2023-10-19T00:10:53;97460.47;;;12.47;100.00
43707;BME280;61348;53.392;-6.248;2023-10-19T00:13:35;97456.94;;;12.47;100.00
43707;BME280;61348;53.392;-6.248;2023-10-19T00:16:02;97452.16;;;12.47;100.00
43707;BME280;61348;53.392;-6.248;2023-10-19T00:18:38;97452.59;;;12.46;100.00
43707;BME280;61348;53.392;-6.248;2023-10-19T00:21:09;97448.25;;;12.45;100.00
43707;BME280;61348;53.392;-6.248;2023-10-19T00:23:56;97444.72;;;12.44;100.00
43707;BME280;61348;53.392;-6.248;2023-10-19T00:26:25;97443.16;;;12.43;100.00
43707;BME280;61348;53.392;-6.248;2023-10-19T00:28:53;97438.38;;;12.44;100.00
43707;BME280;61348;53.392;-6.248;2023-10-19T00:31:23;97427.28;;;12.44;100.00
43707;BME280;61348;53.392;-6.248;2023-10-19T00:33:50;97431.28;;;12.43;100.00
43707;BME280;61348;53.392;-6.248;2023-10-19T00:55:19;97406.25;;;12.30;100.00
43707;BME280;61348;53.392;-6.248;2023-10-19T00:57:48;97396.72;;;12.31;100.00
43707;BME280;61348;53.392;-6.248;2023-10-19T01:00:15;97393.19;;;12.31;100.00
43707;BME280;61348;53.392;-6.248;2023-10-19T01:02:59;97398.72;;;12.31;100.00
43707;BME280;61348;53.392;-6.248;2023-10-19T01:05:27;97389.94;;;12.32;100.00
43707;BME280;61348;53.392;-6.248;2023-10-19T01:08:03;97388.75;;;12.33;100.00
43707;BME280;61348;53.392;-6.248;2023-10-19T01:10:47;97387.97;;;12.33;100.00
43707;BME280;61348;53.392;-6.248;2023-10-19T01:13:19;97388.38;;;12.31;100.00
43707;BME280;61348;53.392;-6.248;2023-10-19T01:15:54;97378.53;;;12.30;100.00
43707;BME280;61348;53.392;-6.248;2023-10-19T01:18:21;97373.84;;;12.27;100.00
43707;BME280;61348;53.392;-6.248;2023-10-19T01:20:48;97381.84;;;12.25;100.00
43707;BME280;61348;53.392;-6.248;2023-10-19T01:23:19;97377.16;;;12.22;100.00
43707;BME280;61348;53.392;-6.248;2023-10-19T01:25:53;97372.03;;;12.20;100.00
43707;BME280;61348;53.392;-6.248;2023-10-19T01:30:52;97376.47;;;12.18;100.00
43707;BME280;61348;53.392;-6.248;2023-10-19T01:33:19;97366.94;;;12.19;100.00
43707;BME280;61348;53.392;-6.248;2023-10-19T01:35:47;97364.63;;;12.17;100.00
43707;BME280;61348;53.392;-6.248;2023-10-19T01:38:32;97355.06;;;12.18;100.00
43707;BME280;61348;53.392;-6.248;2023-10-19T01:41:01;97344.75;;;12.19;100.00
43707;BME280;61348;53.392;-6.248;2023-10-19T01:43:28;97345.53;;;12.19;100.00
43707;BME280;61348;53.392;-6.248;2023-10-19T01:45:59;97345.09;;;12.21;100.00
43707;BME280;61348;53.392;-6.248;2023-10-19T01:48:31;97337.53;;;12.21;100.00
43707;BME280;61348;53.392;-6.248;2023-10-19T01:51:03;97340.31;;;12.21;100.00
43707;BME280;61348;53.392;-6.248;2023-10-19T01:53:33;97333.66;;;12.19;100.00
43707;BME280;61348;53.392;-6.248;2023-10-19T01:56:06;97330.56;;;12.17;100.00
43707;BME280;61348;53.392;-6.248;2023-10-19T01:58:37;97321.00;;;12.18;100.00
43707;BME280;61348;53.392;-6.248;2023-10-19T02:01:04;97322.22;;;12.17;100.00
43707;BME280;61348;53.392;-6.248;2023-10-19T02:03:42;97316.22;;;12.18;100.00
43707;BME280;61348;53.392;-6.248;2023-10-19T02:06:10;97301.59;;;12.18;100.00
43707;BME280;61348;53.392;-6.248;2023-10-19T02:08:51;97305.94;;;12.19;100.00
43707;BME280;61348;53.392;-6.248;2023-10-19T02:11:22;97300.38;;;12.19;100.00
43707;BME280;61348;53.392;-6.248;2023-10-19T02:13:52;97292.06;;;12.19;100.00
43707;BME280;61348;53.392;-6.248;2023-10-19T02:16:19;97290.06;;;12.19;100.00
43707;BME280;61348;53.392;-6.248;2023-10-19T02:18:50;97283.28;;;12.20;100.00
43707;BME280;61348;53.392;-6.248;2023-10-19T02:21:17;97276.53;;;12.21;100.00
43707;BME280;61348;53.392;-6.248;2023-10-19T02:23:53;97277.00;;;12.20;100.00
43707;BME280;61348;53.392;-6.248;2023-10-19T02:26:20;97267.44;;;12.21;100.00
43707;BME280;61348;53.392;-6.248;2023-10-19T02:28:49;97260.69;;;12.22;100.00
43707;BME280;61348;53.392;-6.248;2023-10-19T02:31:19;97259.09;;;12.21;100.00
43707;BME280;61348;53.392;-6.248;2023-10-19T02:33:50;97248.03;;;12.21;100.00
43707;BME280;61348;53.392;-6.248;2023-10-19T02:36:27;97242.47;;;12.21;100.00
43707;BME280;61348;53.392;-6.248;2023-10-19T02:38:58;97241.25;;;12.22;100.00
43707;BME280;61348;53.392;-6.248;2023-10-19T02:41:26;97235.72;;;12.22;100.00
43707;BME280;61348;53.392;-6.248;2023-10-19T02:43:53;97228.97;;;12.23;100.00
43707;BME280;61348;53.392;-6.248;2023-10-19T02:46:37;97224.63;;;12.22;100.00
43707;BME280;61348;53.392;-6.248;2023-10-19T02:49:09;97217.88;;;12.23;100.00
43707;BME280;61348;53.392;-6.248;2023-10-19T02:51:41;97209.09;;;12.25;100.00
43707;BME280;61348;53.392;-6.248;2023-10-19T02:54:13;97201.88;;;12.27;100.00
43707;BME280;61348;53.392;-6.248;2023-10-19T02:56:47;97192.00;;;12.26;100.00
43707;BME280;61348;53.392;-6.248;2023-10-19T02:59:17;97178.13;;;12.26;100.00
43707;BME280;61348;53.392;-6.248;2023-10-19T03:01:50;97180.47;;;12.28;100.00
43707;BME280;61348;53.392;-6.248;2023-10-19T03:04:18;97169.38;;;12.28;100.00
43707;BME280;61348;53.392;-6.248;2023-10-19T03:06:45;97163.06;;;12.27;100.00
43707;BME280;61348;53.392;-6.248;2023-10-19T03:09:12;97149.19;;;12.27;100.00
43707;BME280;61348;53.392;-6.248;2023-10-19T03:11:46;97139.31;;;12.26;100.00
43707;BME280;61348;53.392;-6.248;2023-10-19T03:14:13;97133.75;;;12.26;100.00
43707;BME280;61348;53.392;-6.248;2023-10-19T03:16:40;97134.53;;;12.27;100.00
43707;BME280;61348;53.392;-6.248;2023-10-19T03:19:09;97135.31;;;12.27;100.00
43707;BME280;61348;53.392;-6.248;2023-10-19T03:21:36;97131.34;;;12.28;100.00
43707;BME280;61348;53.392;-6.248;2023-10-19T03:24:16;97127.34;;;12.29;100.00
43707;BME280;61348;53.392;-6.248;2023-10-19T03:26:50;97125.78;;;12.28;100.00
43707;BME280;61348;53.392;-6.248;2023-10-19T03:29:17;97123.03;;;12.28;100.00
43707;BME280;61348;53.392;-6.248;2023-10-19T03:31:58;97117.81;;;12.30;100.00
43707;BME280;61348;53.392;-6.248;2023-10-19T03:34:28;97116.56;;;12.31;100.00
43707;BME280;61348;53.392;-6.248;2023-10-19T03:37:01;97104.25;;;12.32;100.00
43707;BME280;61348;53.392;-6.248;2023-10-19T03:39:33;97109.81;;;12.32;100.00
43707;BME280;61348;53.392;-6.248;2023-10-19T03:42:00;97111.38;;;12.33;100.00
43707;BME280;61348;53.392;-6.248;2023-10-19T03:44:27;97103.84;;;12.34;100.00
43707;BME280;61348;53.392;-6.248;2023-10-19T03:47:05;97106.16;;;12.35;100.00
43707;BME280;61348;53.392;-6.248;2023-10-19T03:49:38;97097.81;;;12.35;100.00
43707;BME280;61348;53.392;-6.248;2023-10-19T03:52:07;97097.81;;;12.35;100.00
43707;BME280;61348;53.392;-6.248;2023-10-19T03:54:37;97093.84;;;12.36;100.00
43707;BME280;61348;53.392;-6.248;2023-10-19T03:57:11;97097.72;;;12.39;100.00
43707;BME280;61348;53.392;-6.248;2023-10-19T03:59:39;97090.16;;;12.39;100.00
43707;BME280;61348;53.392;-6.248;2023-10-19T04:02:07;97079.41;;;12.41;100.00
43707;BME280;61348;53.392;-6.248;2023-10-19T04:04:40;97077.84;;;12.40;100.00
43707;BME280;61348;53.392;-6.248;2023-10-19T04:07:11;97077.84;;;12.40;100.00
43707;BME280;61348;53.392;-6.248;2023-10-19T04:09:44;97075.06;;;12.40;100.00
43707;BME280;61348;53.392;-6.248;2023-10-19T04:12:26;97076.28;;;12.39;100.00
43707;BME280;61348;53.392;-6.248;2023-10-19T04:14:55;97065.19;;;12.39;100.00
43707;BME280;61348;53.392;-6.248;2023-10-19T04:17:46;97060.41;;;12.40;100.00
43707;BME280;61348;53.392;-6.248;2023-10-19T04:20:15;97048.53;;;12.39;100.00
43707;BME280;61348;53.392;-6.248;2023-10-19T04:22:55;97054.88;;;12.40;100.00
43707;BME280;61348;53.392;-6.248;2023-10-19T04:25:23;97048.53;;;12.39;100.00
43707;BME280;61348;53.392;-6.248;2023-10-19T04:27:54;97047.34;;;12.40;100.00
43707;BME280;61348;53.392;-6.248;2023-10-19T04:30:23;97051.31;;;12.39;100.00
43707;BME280;61348;53.392;-6.248;2023-10-19T04:32:54;97043.00;;;12.39;100.00
43707;BME280;61348;53.392;-6.248;2023-10-19T04:35:25;97031.91;;;12.39;100.00
43707;BME280;61348;53.392;-6.248;2023-10-19T04:37:58;97026.34;;;12.39;100.00
43707;BME280;61348;53.392;-6.248;2023-10-19T04:40:26;97018.03;;;12.39;100.00
43707;BME280;61348;53.392;-6.248;2023-10-19T04:42:54;97024.34;;;12.40;100.00
43707;BME280;61348;53.392;-6.248;2023-10-19T04:45:21;97022.38;;;12.40;100.00
43707;BME280;61348;53.392;-6.248;2023-10-19T04:47:51;97023.94;;;12.41;100.00
43707;BME280;61348;53.392;-6.248;2023-10-19T04:50:19;97022.38;;;12.40;100.00
43707;BME280;61348;53.392;-6.248;2023-10-19T04:52:46;97010.06;;;12.41;100.00
43707;BME280;61348;53.392;-6.248;2023-10-19T04:55:14;97015.59;;;12.41;100.00
43707;BME280;61348;53.392;-6.248;2023-10-19T04:57:41;97019.91;;;12.42;100.00
43707;BME280;61348;53.392;-6.248;2023-10-19T05:00:08;97009.59;;;12.43;100.00
43707;BME280;61348;53.392;-6.248;2023-10-19T05:02:41;97004.84;;;12.43;100.00
43707;BME280;61348;53.392;-6.248;2023-10-19T05:05:08;97006.38;;;12.44;100.00
43707;BME280;61348;53.392;-6.248;2023-10-19T05:07:35;97003.16;;;12.46;100.00
43707;BME280;61348;53.392;-6.248;2023-10-19T05:10:02;97002.38;;;12.45;100.00
43707;BME280;61348;53.392;-6.248;2023-10-19T05:12:32;96999.91;;;12.47;100.00
43707;BME280;61348;53.392;-6.248;2023-10-19T05:14:58;97000.69;;;12.48;100.00
43707;BME280;61348;53.392;-6.248;2023-10-19T05:17:25;96992.38;;;12.48;100.00
43707;BME280;61348;53.392;-6.248;2023-10-19T05:19:54;96990.38;;;12.48;100.00
43707;BME280;61348;53.392;-6.248;2023-10-19T05:22:21;96980.84;;;12.49;100.00
43707;BME280;61348;53.392;-6.248;2023-10-19T05:24:48;96979.59;;;12.50;100.00
43707;BME280;61348;53.392;-6.248;2023-10-19T05:27:15;96975.63;;;12.51;100.00
43707;BME280;61348;53.392;-6.248;2023-10-19T05:29:43;96979.59;;;12.50;100.00
43707;BME280;61348;53.392;-6.248;2023-10-19T05:32:10;96969.75;;;12.49;100.00
43707;BME280;61348;53.392;-6.248;2023-10-19T05:34:36;96964.22;;;12.49;100.00
43707;BME280;61348;53.392;-6.248;2023-10-19T05:37:03;96964.63;;;12.48;100.00
43707;BME280;61348;53.392;-6.248;2023-10-19T05:39:32;96968.19;;;12.48;100.00
43707;BME280;61348;53.392;-6.248;2023-10-19T05:42:00;96963.44;;;12.49;100.00
43707;BME280;61348;53.392;-6.248;2023-10-19T05:44:31;96965.72;;;12.50;100.00
43707;BME280;61348;53.392;-6.248;2023-10-19T05:46:59;96967.72;;;12.50;100.00
43707;BME280;61348;53.392;-6.248;2023-10-19T05:49:27;96959.41;;;12.50;100.00
43707;BME280;61348;53.392;-6.248;2023-10-19T05:51:56;96956.19;;;12.51;100.00
43707;BME280;61348;53.392;-6.248;2023-10-19T05:54:23;96954.63;;;12.50;100.00
43707;BME280;61348;53.392;-6.248;2023-10-19T05:56:51;96956.19;;;12.51;100.00
43707;BME280;61348;53.392;-6.248;2023-10-19T05:59:18;96951.44;;;12.52;100.00
43707;BME280;61348;53.392;-6.248;2023-10-19T06:01:45;96941.09;;;12.52;100.00
43707;BME280;61348;53.392;-6.248;2023-10-19T06:04:15;96938.00;;;12.50;100.00
43707;BME280;61348;53.392;-6.248;2023-10-19T06:06:47;96938.78;;;12.51;100.00
43707;BME280;61348;53.392;-6.248;2023-10-19T06:09:15;96928.47;;;12.51;100.00
43707;BME280;61348;53.392;-6.248;2023-10-19T06:11:44;96938.00;;;12.50;100.00
43707;BME280;61348;53.392;-6.248;2023-10-19T06:14:10;96934.00;;;12.51;100.00
43707;BME280;61348;53.392;-6.248;2023-10-19T06:16:37;96925.38;;;12.49;100.00
43707;BME280;61348;53.392;-6.248;2023-10-19T06:19:04;96923.81;;;12.48;100.00
43707;BME280;61348;53.392;-6.248;2023-10-19T06:21:32;96915.16;;;12.46;100.00
43707;BME280;61348;53.392;-6.248;2023-10-19T06:24:00;96919.16;;;12.45;100.00
43707;BME280;61348;53.392;-6.248;2023-10-19T06:26:29;96923.91;;;12.45;100.00
43707;BME280;61348;53.392;-6.248;2023-10-19T06:28:56;96921.16;;;12.45;100.00
43707;BME280;61348;53.392;-6.248;2023-10-19T06:31:26;96918.84;;;12.43;100.00
43707;BME280;61348;53.392;-6.248;2023-10-19T06:33:56;96923.91;;;12.45;100.00
43707;BME280;61348;53.392;-6.248;2023-10-19T06:36:24;96920.41;;;12.44;100.00
43707;BME280;61348;53.392;-6.248;2023-10-19T06:38:51;96918.38;;;12.45;100.00
43707;BME280;61348;53.392;-6.248;2023-10-19T06:41:18;96925.47;;;12.46;100.00
43707;BME280;61348;53.392;-6.248;2023-10-19T06:43:45;96930.25;;;12.45;100.00
43707;BME280;61348;53.392;-6.248;2023-10-19T06:46:13;96935.78;;;12.45;100.00
43707;BME280;61348;53.392;-6.248;2023-10-19T06:48:41;96927.47;;;12.45;100.00
43707;BME280;61348;53.392;-6.248;2023-10-19T06:51:09;96932.59;;;12.47;100.00
43707;BME280;61348;53.392;-6.248;2023-10-19T06:53:36;96933.34;;;12.47;100.00
43707;BME280;61348;53.392;-6.248;2023-10-19T06:56:02;96932.13;;;12.48;100.00
43707;BME280;61348;53.392;-6.248;2023-10-19T06:58:31;96931.66;;;12.50;100.00
43707;BME280;61348;53.392;-6.248;2023-10-19T07:00:59;96928.88;;;12.50;100.00
43707;BME280;61348;53.392;-6.248;2023-10-19T07:03:32;96920.13;;;12.51;100.00
43707;BME280;61348;53.392;-6.248;2023-10-19T07:05:58;96926.78;;;12.54;100.00
43707;BME280;61348;53.392;-6.248;2023-10-19T07:08:26;96929.56;;;12.54;100.00
43707;BME280;61348;53.392;-6.248;2023-10-19T07:10:53;96929.56;;;12.54;100.00
43707;BME280;61348;53.392;-6.248;2023-10-19T07:13:21;96929.88;;;12.56;100.00
43707;BME280;61348;53.392;-6.248;2023-10-19T07:15:48;96925.09;;;12.56;100.00
43707;BME280;61348;53.392;-6.248;2023-10-19T07:18:18;96932.22;;;12.57;100.00
43707;BME280;61348;53.392;-6.248;2023-10-19T07:20:45;96924.22;;;12.59;100.00
43707;BME280;61348;53.392;-6.248;2023-10-19T07:23:15;96924.22;;;12.59;100.00
43707;BME280;61348;53.392;-6.248;2023-10-19T07:25:47;96923.75;;;12.61;100.00
43707;BME280;61348;53.392;-6.248;2023-10-19T07:28:17;96924.06;;;12.63;100.00
43707;BME280;61348;53.392;-6.248;2023-10-19T07:30:44;96918.06;;;12.64;100.00
43707;BME280;61348;53.392;-6.248;2023-10-19T07:33:11;96913.31;;;12.65;100.00
43707;BME280;61348;53.392;-6.248;2023-10-19T07:35:46;96919.94;;;12.67;100.00
43707;BME280;61348;53.392;-6.248;2023-10-19T07:38:14;96922.25;;;12.69;100.00
43707;BME280;61348;53.392;-6.248;2023-10-19T07:40:42;96927.81;;;12.69;100.00
43707;BME280;61348;53.392;-6.248;2023-10-19T07:43:10;96926.13;;;12.71;100.00
43707;BME280;61348;53.392;-6.248;2023-10-19T07:45:37;96925.22;;;12.74;100.00
43707;BME280;61348;53.392;-6.248;2023-10-19T07:48:04;96918.78;;;12.77;100.00
43707;BME280;61348;53.392;-6.248;2023-10-19T07:50:38;96919.09;;;12.79;100.00
43707;BME280;61348;53.392;-6.248;2023-10-19T07:53:07;96916.63;;;12.81;100.00
43707;BME280;61348;53.392;-6.248;2023-10-19T07:55:35;96908.66;;;12.83;100.00
43707;BME280;61348;53.392;-6.248;2023-10-19T07:58:05;96921.63;;;12.87;100.00
43707;BME280;61348;53.392;-6.248;2023-10-19T08:00:35;96917.59;;;12.88;100.00
43707;BME280;61348;53.392;-6.248;2023-10-19T08:03:03;96912.84;;;12.88;100.00
43707;BME280;61348;53.392;-6.248;2023-10-19T08:05:32;96919.16;;;12.89;100.00
43707;BME280;61348;53.392;-6.248;2023-10-19T08:08:01;96912.38;;;12.90;100.00
43707;BME280;61348;53.392;-6.248;2023-10-19T08:10:30;96917.19;;;12.89;100.00
43707;BME280;61348;53.392;-6.248;2023-10-19T08:12:57;96911.94;;;12.91;100.00
43707;BME280;61348;53.392;-6.248;2023-10-19T08:15:26;96908.38;;;12.91;100.00
43707;BME280;61348;53.392;-6.248;2023-10-19T08:17:52;96912.72;;;12.92;100.00
43707;BME280;61348;53.392;-6.248;2023-10-19T08:20:23;96910.25;;;12.94;100.00
43707;BME280;61348;53.392;-6.248;2023-10-19T08:22:53;96906.22;;;12.95;100.00
43707;BME280;61348;53.392;-6.248;2023-10-19T08:25:21;96910.13;;;12.97;100.00
43707;BME280;61348;53.392;-6.248;2023-10-19T08:27:49;96915.22;;;12.99;100.00
43707;BME280;61348;53.392;-6.248;2023-10-19T08:30:18;96903.66;;;13.00;100.00
43707;BME280;61348;53.392;-6.248;2023-10-19T08:32:48;96908.75;;;13.02;100.00
43707;BME280;61348;53.392;-6.248;2023-10-19T08:35:18;96908.28;;;13.03;100.00
43707;BME280;61348;53.392;-6.248;2023-10-19T08:37:47;96897.97;;;13.04;100.00
43707;BME280;61348;53.392;-6.248;2023-10-19T08:40:14;96900.28;;;13.05;100.00
43707;BME280;61348;53.392;-6.248;2023-10-19T08:42:42;96897.09;;;13.07;100.00
43707;BME280;61348;53.392;-6.248;2023-10-19T08:45:10;96895.09;;;13.07;100.00
43707;BME280;61348;53.392;-6.248;2023-10-19T08:47:55;96894.31;;;13.07;100.00
43707;BME280;61348;53.392;-6.248;2023-10-19T08:50:33;96896.28;;;13.06;100.00
43707;BME280;61348;53.392;-6.248;2023-10-19T08:53:06;96894.72;;;13.05;100.00
43707;BME280;61348;53.392;-6.248;2023-10-19T08:55:35;96899.53;;;13.05;100.00
43707;BME280;61348;53.392;-6.248;2023-10-19T08:58:16;96894.72;;;13.05;100.00
43707;BME280;61348;53.392;-6.248;2023-10-19T09:00:47;96892.41;;;13.04;100.00
43707;BME280;61348;53.392;-6.248;2023-10-19T09:03:15;96897.97;;;13.04;100.00
43707;BME280;61348;53.392;-6.248;2023-10-19T09:05:44;96902.75;;;13.03;100.00
43707;BME280;61348;53.392;-6.248;2023-10-19T09:08:18;96897.19;;;13.03;100.00
43707;BME280;61348;53.392;-6.248;2023-10-19T09:10:47;96905.06;;;13.05;100.00
43707;BME280;61348;53.392;-6.248;2023-10-19T09:13:15;96902.66;;;13.07;100.00
43707;BME280;61348;53.392;-6.248;2023-10-19T09:15:47;96906.59;;;13.06;100.00
43707;BME280;61348;53.392;-6.248;2023-10-19T09:18:22;96908.19;;;13.07;100.00
43707;BME280;61348;53.392;-6.248;2023-10-19T09:20:51;96895.09;;;13.07;100.00
43707;BME280;61348;53.392;-6.248;2023-10-19T09:23:25;96901.84;;;13.06;100.00
43707;BME280;61348;53.392;-6.248;2023-10-19T09:25:53;96906.97;;;13.08;100.00
43707;BME280;61348;53.392;-6.248;2023-10-19T09:28:21;96906.97;;;13.08;100.00
43707;BME280;61348;53.392;-6.248;2023-10-19T09:30:50;96899.41;;;13.08;100.00
43707;BME280;61348;53.392;-6.248;2023-10-19T09:33:17;96901.44;;;13.08;100.00
43707;BME280;61348;53.392;-6.248;2023-10-19T09:35:49;96900.66;;;13.07;100.00
43707;BME280;61348;53.392;-6.248;2023-10-19T09:38:17;96900.66;;;13.07;100.00
43707;BME280;61348;53.392;-6.248;2023-10-19T09:40:55;96908.19;;;13.07;100.00
43707;BME280;61348;53.392;-6.248;2023-10-19T09:45:57;96897.09;;;13.07;100.00
43707;BME280;61348;53.392;-6.248;2023-10-19T09:48:27;96893.41;;;13.10;100.00
43707;BME280;61348;53.392;-6.248;2023-10-19T09:50:55;96903.63;;;13.13;100.00
43707;BME280;61348;53.392;-6.248;2023-10-19T09:53:28;96906.22;;;13.16;100.00
43707;BME280;61348;53.392;-6.248;2023-10-19T09:55:57;96903.63;;;13.22;100.00
43707;BME280;61348;53.392;-6.248;2023-10-19T09:58:27;96912.47;;;13.29;100.00
43707;BME280;61348;53.392;-6.248;2023-10-19T10:01:00;96914.22;;;13.36;100.00
43707;BME280;61348;53.392;-6.248;2023-10-19T10:03:45;96901.28;;;13.42;100.00
43707;BME280;61348;53.392;-6.248;2023-10-19T10:06:17;96905.91;;;13.45;100.00
43707;BME280;61348;53.392;-6.248;2023-10-19T10:08:53;96912.09;;;13.49;100.00
43707;BME280;61348;53.392;-6.248;2023-10-19T10:11:27;96913.06;;;13.55;100.00
43707;BME280;61348;53.392;-6.248;2023-10-19T10:13:56;96912.13;;;13.58;100.00
43707;BME280;61348;53.392;-6.248;2023-10-19T10:16:28;96908.78;;;13.63;100.00
43707;BME280;61348;53.392;-6.248;2023-10-19T10:18:58;96912.63;;;13.66;100.00
43707;BME280;61348;53.392;-6.248;2023-10-19T10:21:28;96908.16;;;13.68;100.00
43707;BME280;61348;53.392;-6.248;2023-10-19T10:23:58;96913.56;;;13.72;100.00
43707;BME280;61348;53.392;-6.248;2023-10-19T10:26:57;96913.56;;;13.72;100.00
43707;BME280;61348;53.392;-6.248;2023-10-19T10:29:24;96909.88;;;13.75;100.00
43707;BME280;61348;53.392;-6.248;2023-10-19T10:31:53;96914.81;;;13.80;100.00
43707;BME280;61348;53.392;-6.248;2023-10-19T10:37:12;96912.84;;;13.98;100.00
43707;BME280;61348;53.392;-6.248;2023-10-19T10:39:41;96911.06;;;14.14;100.00
43707;BME280;61348;53.392;-6.248;2023-10-19T10:42:09;96903.63;;;14.29;100.00
43707;BME280;61348;53.392;-6.248;2023-10-19T10:47:06;96914.81;;;14.56;100.00
43707;BME280;61348;53.392;-6.248;2023-10-19T10:49:59;96920.38;;;14.74;100.00
43707;BME280;61348;53.392;-6.248;2023-10-19T10:52:30;96926.22;;;14.94;100.00
43707;BME280;61348;53.392;-6.248;2023-10-19T10:55:06;96922.94;;;15.05;100.00
43707;BME280;61348;53.392;-6.248;2023-10-19T10:57:34;96921.22;;;15.07;100.00
43707;BME280;61348;53.392;-6.248;2023-10-19T11:00:05;96919.69;;;15.06;100.00
43707;BME280;61348;53.392;-6.248;2023-10-19T11:02:36;96920.00;;;14.99;100.00
43707;BME280;61348;53.392;-6.248;2023-10-19T11:05:07;96916.31;;;14.93;100.00
43707;BME280;61348;53.392;-6.248;2023-10-19T11:07:40;96919.72;;;14.88;100.00
43707;BME280;61348;53.392;-6.248;2023-10-19T11:10:07;96915.69;;;14.89;100.00
43707;BME280;61348;53.392;-6.248;2023-10-19T11:12:36;96915.41;;;14.87;100.00
43707;BME280;61348;53.392;-6.248;2023-10-19T11:15:04;96922.84;;;14.90;100.00
43707;BME280;61348;53.392;-6.248;2023-10-19T11:17:43;96922.66;;;14.94;100.00
43707;BME280;61348;53.392;-6.248;2023-10-19T11:20:20;96920.63;;;15.03;100.00
43707;BME280;61348;53.392;-6.248;2023-10-19T11:22:51;96926.50;;;15.05;100.00
43707;BME280;61348;53.392;-6.248;2023-10-19T11:25:20;96920.00;;;15.08;100.00
43707;BME280;61348;53.392;-6.248;2023-10-19T11:28:16;96922.00;;;15.08;100.00
43707;BME280;61348;53.392;-6.248;2023-10-19T11:30:44;96916.59;;;15.04;100.00
43707;BME280;61348;53.392;-6.248;2023-10-19T11:33:15;96910.13;;;14.98;100.00
43707;BME280;61348;53.392;-6.248;2023-10-19T11:35:44;96920.16;;;14.96;100.00
43707;BME280;61348;53.392;-6.248;2023-10-19T11:38:11;96920.34;;;14.92;100.00
43707;BME280;61348;53.392;-6.248;2023-10-19T11:40:38;96914.78;;;14.92;100.00
43707;BME280;61348;53.392;-6.248;2023-10-19T11:43:05;96923.72;;;14.96;100.00
43707;BME280;61348;53.392;-6.248;2023-10-19T11:45:31;96917.53;;;15.01;100.00
43707;BME280;61348;53.392;-6.248;2023-10-19T11:47:58;96915.66;;;15.07;100.00
43707;BME280;61348;53.392;-6.248;2023-10-19T11:50:26;96913.81;;;15.13;100.00
43707;BME280;61348;53.392;-6.248;2023-10-19T11:52:54;96915.31;;;15.14;100.00
43707;BME280;61348;53.392;-6.248;2023-10-19T11:55:24;96918.75;;;15.09;100.00
43707;BME280;61348;53.392;-6.248;2023-10-19T11:57:51;96908.81;;;15.17;100.00
43707;BME280;61348;53.392;-6.248;2023-10-19T12:00:18;96921.19;;;15.25;100.00
43707;BME280;61348;53.392;-6.248;2023-10-19T12:03:00;96914.69;;;15.29;100.00
43707;BME280;61348;53.392;-6.248;2023-10-19T12:05:27;96917.75;;;15.31;100.00
43707;BME280;61348;53.392;-6.248;2023-10-19T12:07:55;96915.31;;;15.33;100.00
43707;BME280;61348;53.392;-6.248;2023-10-19T12:10:23;96910.31;;;15.37;100.00
43707;BME280;61348;53.392;-6.248;2023-10-19T12:13:03;96911.88;;;15.38;100.00
43707;BME280;61348;53.392;-6.248;2023-10-19T12:15:30;96911.88;;;15.38;100.00
43707;BME280;61348;53.392;-6.248;2023-10-19T12:17:57;96910.16;;;15.40;100.00
43707;BME280;61348;53.392;-6.248;2023-10-19T12:20:24;96916.50;;;15.41;100.00
43707;BME280;61348;53.392;-6.248;2023-10-19T12:22:51;96912.47;;;15.42;100.00
43707;BME280;61348;53.392;-6.248;2023-10-19T12:25:21;96919.13;;;15.44;100.00
43707;BME280;61348;53.392;-6.248;2023-10-19T12:28:15;96915.72;;;15.49;100.00
43707;BME280;61348;53.392;-6.248;2023-10-19T12:30:42;96922.38;;;15.52;100.00
43707;BME280;61348;53.392;-6.248;2023-10-19T12:33:09;96926.38;;;15.60;100.00
43707;BME280;61348;53.392;-6.248;2023-10-19T12:35:42;96917.06;;;15.63;100.00
43707;BME280;61348;53.392;-6.248;2023-10-19T12:38:18;96924.78;;;15.68;100.00
43707;BME280;61348;53.392;-6.248;2023-10-19T12:40:48;96918.56;;;15.73;100.00
43707;BME280;61348;53.392;-6.248;2023-10-19T12:43:17;96925.53;;;15.77;100.00
43707;BME280;61348;53.392;-6.248;2023-10-19T12:45:51;96919.75;;;15.81;100.00
43707;BME280;61348;53.392;-6.248;2023-10-19T12:48:24;96907.94;;;15.86;100.00
43707;BME280;61348;53.392;-6.248;2023-10-19T12:51:04;96914.16;;;15.90;100.00
43707;BME280;61348;53.392;-6.248;2023-10-19T12:53:33;96925.31;;;15.90;100.00
43707;BME280;61348;53.392;-6.248;2023-10-19T12:56:01;96918.78;;;15.93;100.00
43707;BME280;61348;53.392;-6.248;2023-10-19T12:58:30;96913.00;;;15.97;100.00
43707;BME280;61348;53.392;-6.248;2023-10-19T13:00:58;96914.19;;;16.05;100.00
43707;BME280;61348;53.392;-6.248;2023-10-19T13:03:25;96917.72;;;16.14;100.00
43707;BME280;61348;53.392;-6.248;2023-10-19T13:06:00;96922.00;;;16.24;100.00
43707;BME280;61348;53.392;-6.248;2023-10-19T13:08:31;96918.06;;;16.31;100.00
43707;BME280;61348;53.392;-6.248;2023-10-19T13:10:58;96916.16;;;16.37;100.00
43707;BME280;61348;53.392;-6.248;2023-10-19T13:13:41;96926.78;;;16.48;100.00
43707;BME280;61348;53.392;-6.248;2023-10-19T13:16:08;96930.63;;;16.59;100.00
43707;BME280;61348;53.392;-6.248;2023-10-19T13:18:36;96927.94;;;16.65;100.00
43707;BME280;61348;53.392;-6.248;2023-10-19T13:21:02;96931.78;;;16.67;100.00
43707;BME280;61348;53.392;-6.248;2023-10-19T13:23:32;96935.25;;;16.62;100.00
43707;BME280;61348;53.392;-6.248;2023-10-19T13:26:00;96938.09;;;16.53;100.00